Terminal Aerodrome Forecast
Issued by NWS Miami, FL

Home | Current Version | Previous Version | Text Only | Print | Product List | Glossary On
Versions: 1 2 3 4 5 6 7 8 9 10 11 12 13 14 15 16 17 18 19 20 21 22 23 24 25 26 27 28 29 30 31 32 33 34 35 36 37 38 39 40 41 42 43 44 45 46 47 48 49
000
FTUS42 KMFL 171529 AAA
TAFAPF
TAF AMD
KAPF 171529Z 1715/1812 19005KT P6SM VCSH FEW030 SCT050
     FM171600 26010KT P6SM VCTS SCT030 BKN050CB
     FM172100 29010KT P6SM VCSH SCT050 BKN120
     FM180000 26003KT P6SM VCSH SCT050 SCT080
     FM180100 29004KT P6SM FEW035 SCT250=

USA.gov is the U.S. government's official web portal to all federal, state and local government web resources and services.